KHTO

East Hampton Airport

East Hampton, New York, USA
METAR KHTO 151915Z AUTO 06003KT 10SM SCT026 BKN044 OVC075 M02/M06 A2997 RMK AO2 T10161063
Observed Flight Rules
Dec-15 @ 19:15 UTC (34 minutes ago) Visual Flight Rules
Wind Visibility Clouds
60° at 3 knots 10 miles
  • Scattered at 2,600' AGL
  • Broken at 4,400' AGL
  • Overcast at 7,500' AGL
Temperatures Readings
Current -2°C / 28°F
Dewpoint -6°C / 21°F
Humidity 74%
Altimeter 29.97" Hg
Pressure 1015 hPa
Elevation 17
METAR KHTO 151915Z AUTO 06003KT 10SM SCT026 BKN044 OVC075 M02/M06 A2997 RMK AO2 T10161063
Observed Flight Rules
Dec-15 @ 19:15 UTC
(34 minutes ago)
VFR
Wind Visibility
60° at 3 knots 10 miles
Clouds
  • Scattered at 2,600' AGL
  • Broken at 4,400' AGL
  • Overcast at 7,500' AGL
Temperature Dewpoint
-2°C / 28°F -6°C / 21°F
Humidity Altimeter Pressure
74% 29.97" Hg 1015 hPa